Terminal Aerodrome Forecast
Issued by NWS

Home | Current Version | Previous Version | Text Only | Print | Product List | Glossary On
Versions: 1 2 3 4 5 6 7 8 9 10 11 12
000
FTUS45 KVEF 282300
TAFEED
TAF
KEED 282334Z 2900/2924 VRB04KT P6SM SKC
     FM290300 26007KT P6SM SKC
     FM291500 VRB05KT P6SM SCT250
     FM292100 19010KT P6SM BKN250=

USA.gov is the U.S. government's official web portal to all federal, state and local government web resources and services.